createdAt,value
2023-01-05T00:02:21.886Z,5.13
2023-01-05T00:04:52.678Z,5.43
2023-01-05T00:07:21.086Z,5.10
2023-01-05T00:09:50.948Z,4.50
2023-01-05T00:12:37.460Z,5.57
2023-01-05T00:15:20.394Z,5.33
2023-01-05T00:18:06.568Z,5.80
2023-01-05T00:21:00.481Z,5.00
2023-01-05T00:23:28.913Z,6.00
2023-01-05T00:25:59.181Z,5.17
2023-01-05T00:28:27.743Z,4.70
2023-01-05T00:30:56.115Z,4.93
2023-01-05T00:33:26.734Z,5.23
2023-01-05T00:35:55.171Z,5.23
2023-01-05T00:38:23.696Z,4.97
2023-01-05T00:40:52.418Z,5.53
2023-01-05T00:43:22.302Z,5.23
2023-01-05T00:45:50.936Z,5.37
2023-01-05T00:48:20.098Z,5.47
2023-01-05T00:50:51.310Z,5.70
2023-01-05T00:53:19.784Z,4.97
2023-01-05T00:55:57.645Z,5.17
2023-01-05T00:58:27.417Z,5.53
2023-01-05T01:00:55.798Z,5.57
2023-01-05T01:03:24.418Z,5.90
2023-01-05T01:05:59.760Z,5.20
2023-01-05T01:08:28.373Z,5.70
2023-01-05T01:10:56.861Z,6.07
2023-01-05T01:13:26.897Z,5.43
2023-01-05T01:15:55.863Z,5.10
2023-01-05T01:18:24.369Z,5.50
2023-01-05T01:20:52.771Z,5.70
2023-01-05T01:23:21.226Z,5.00
2023-01-05T01:25:49.936Z,5.33
2023-01-05T01:28:18.298Z,5.73
2023-01-05T01:30:48.239Z,5.13
2023-01-05T01:33:16.690Z,6.00
2023-01-05T01:35:45.138Z,4.90
2023-01-05T01:38:13.597Z,5.47
2023-01-05T01:40:42.881Z,4.70
2023-01-05T01:43:16.247Z,5.93
2023-01-05T01:45:44.725Z,6.03
2023-01-05T01:48:19.944Z,5.67
2023-01-05T01:50:50.663Z,5.10
2023-01-05T01:53:24.240Z,5.93
2023-01-05T01:55:54.268Z,7.03
2023-01-05T01:58:26.883Z,5.63
2023-01-05T02:00:55.519Z,5.67
2023-01-05T02:03:26.053Z,4.90
2023-01-05T02:05:55.365Z,5.73
2023-01-05T02:08:31.471Z,5.87
2023-01-05T02:11:16.781Z,5.40
2023-01-05T02:13:59.816Z,5.43
2023-01-05T02:16:37.498Z,6.10
2023-01-05T02:19:34.040Z,6.17
2023-01-05T02:22:20.907Z,5.30
2023-01-05T02:25:20.956Z,5.53
2023-01-05T02:27:52.532Z,5.47
2023-01-05T02:30:48.077Z,5.33
2023-01-05T02:33:25.770Z,5.50
2023-01-05T02:36:00.484Z,4.93
2023-01-05T02:38:35.500Z,5.67
2023-01-05T02:41:11.541Z,5.57
2023-01-05T02:43:39.959Z,4.83
2023-01-05T02:46:10.152Z,5.10
2023-01-05T02:48:39.791Z,5.20
2023-01-05T02:51:13.538Z,5.70
2023-01-05T02:53:46.379Z,6.10
2023-01-05T02:56:21.909Z,5.97
2023-01-05T02:58:54.231Z,4.90
2023-01-05T03:01:28.267Z,5.20
2023-01-05T03:04:02.419Z,5.00
2023-01-05T03:06:35.565Z,5.40
2023-01-05T03:09:07.541Z,6.03
2023-01-05T03:11:59.457Z,6.47
2023-01-05T03:14:33.597Z,5.57
2023-01-05T03:17:05.984Z,5.63
2023-01-05T03:19:39.485Z,6.13
2023-01-05T03:22:31.100Z,6.03
2023-01-05T03:25:17.765Z,6.50
2023-01-05T03:28:06.205Z,5.83
2023-01-05T03:30:59.822Z,5.90
2023-01-05T03:33:57.645Z,5.87
2023-01-05T03:36:29.741Z,6.77
2023-01-05T03:39:00.267Z,6.10
2023-01-05T03:41:29.465Z,6.60
2023-01-05T03:43:58.175Z,6.30
2023-01-05T03:46:26.540Z,6.77
2023-01-05T03:48:56.491Z,6.50
2023-01-05T03:51:25.166Z,6.90
2023-01-05T03:53:53.510Z,7.27
2023-01-05T03:56:21.906Z,6.87
2023-01-05T03:58:50.521Z,6.90
2023-01-05T04:01:18.939Z,7.10
2023-01-05T04:03:47.513Z,6.90
2023-01-05T04:06:17.695Z,7.77
2023-01-05T04:08:47.799Z,7.60
2023-01-05T04:11:18.301Z,7.43
2023-01-05T04:13:46.766Z,7.70
2023-01-05T04:16:15.477Z,6.67
2023-01-05T04:18:44.099Z,8.17
2023-01-05T04:21:12.872Z,7.90
2023-01-05T04:23:42.740Z,7.70
2023-01-05T04:26:11.172Z,8.00
2023-01-05T04:28:39.569Z,8.37
2023-01-05T04:31:08.072Z,9.23
2023-01-05T04:33:39.496Z,7.90
2023-01-05T04:36:08.851Z,8.43
2023-01-05T04:38:37.287Z,7.87
2023-01-05T04:41:07.692Z,7.93
2023-01-05T04:43:36.026Z,8.17
2023-01-05T04:46:04.508Z,7.37
2023-01-05T04:48:33.277Z,8.57
2023-01-05T04:51:02.056Z,7.33
2023-01-05T04:53:30.431Z,7.67
2023-01-05T04:55:58.818Z,8.33
2023-01-05T04:58:28.590Z,8.47
2023-01-05T05:00:57.602Z,8.00
2023-01-05T05:03:32.584Z,7.87
2023-01-05T05:06:01.766Z,8.00
2023-01-05T05:08:30.866Z,8.03
2023-01-05T05:10:59.952Z,7.83
2023-01-05T05:13:31.368Z,8.20
2023-01-05T05:15:59.793Z,8.47
2023-01-05T05:18:28.437Z,11.20
2023-01-05T05:20:56.946Z,9.73
2023-01-05T05:23:25.353Z,9.43
2023-01-05T05:25:53.904Z,7.50
2023-01-05T05:28:23.177Z,8.90
2023-01-05T05:30:53.390Z,7.63
2023-01-05T05:33:22.223Z,7.87
2023-01-05T05:35:50.571Z,7.97
2023-01-05T05:38:18.926Z,7.77
2023-01-05T05:40:49.160Z,7.90
2023-01-05T05:43:17.565Z,8.10
2023-01-05T05:45:50.270Z,8.57
2023-01-05T05:48:21.209Z,9.00
2023-01-05T05:50:49.623Z,7.90
2023-01-05T05:53:18.193Z,8.07
2023-01-05T05:55:50.066Z,8.23
2023-01-05T05:58:18.792Z,10.80
2023-01-05T06:00:47.458Z,8.57
2023-01-05T06:03:16.690Z,7.43
2023-01-05T06:05:47.761Z,7.10
2023-01-05T06:08:16.146Z,8.33
2023-01-05T06:10:45.065Z,8.60
2023-01-05T06:13:13.733Z,9.57
2023-01-05T06:15:42.177Z,8.90
2023-01-05T06:18:11.401Z,8.93
2023-01-05T06:20:39.940Z,8.70
2023-01-05T06:23:09.862Z,9.57
2023-01-05T06:25:38.590Z,8.33
2023-01-05T06:28:07.292Z,9.73
2023-01-05T06:30:35.751Z,8.33
2023-01-05T06:33:04.317Z,9.33
2023-01-05T06:35:33.209Z,9.17
2023-01-05T06:38:02.337Z,8.80
2023-01-05T06:40:32.170Z,9.33
2023-01-05T06:43:00.537Z,9.13
2023-01-05T06:45:29.149Z,9.07
2023-01-05T06:47:59.127Z,9.90
2023-01-05T06:50:27.543Z,8.30
2023-01-05T06:52:56.221Z,8.50
2023-01-05T06:55:24.675Z,10.17
2023-01-05T06:58:00.509Z,8.97
2023-01-05T07:00:30.650Z,8.23
2023-01-05T07:02:59.578Z,9.03
2023-01-05T07:05:28.132Z,8.80
2023-01-05T07:07:56.692Z,8.93
2023-01-05T07:10:25.068Z,8.33
2023-01-05T07:12:55.321Z,8.93
2023-01-05T07:15:26.359Z,8.50
2023-01-05T07:17:54.754Z,8.97
2023-01-05T07:20:23.259Z,9.17
2023-01-05T07:22:52.009Z,10.47
2023-01-05T07:25:20.385Z,10.23
2023-01-05T07:27:53.414Z,10.53
2023-01-05T07:30:23.219Z,10.93
2023-01-05T07:32:52.028Z,11.70
2023-01-05T07:35:20.627Z,11.90
2023-01-05T07:37:49.083Z,10.33
2023-01-05T07:40:17.806Z,10.80
2023-01-05T07:42:46.286Z,10.20
2023-01-05T07:45:14.916Z,12.50
2023-01-05T07:47:44.711Z,11.37
2023-01-05T07:50:13.998Z,11.17
2023-01-05T07:52:42.458Z,12.17
2023-01-05T07:55:11.453Z,11.80
2023-01-05T07:57:39.838Z,13.30
2023-01-05T08:00:09.651Z,10.83
2023-01-05T08:02:38.175Z,12.07
2023-01-05T08:05:08.989Z,12.20
2023-01-05T08:07:42.376Z,13.37
2023-01-05T08:10:29.892Z,12.67
2023-01-05T08:13:21.719Z,11.40
2023-01-05T08:15:51.828Z,10.63
2023-01-05T08:18:20.719Z,11.77
2023-01-05T08:20:55.188Z,11.67
2023-01-05T08:23:26.099Z,10.57
2023-01-05T08:25:56.611Z,11.30
2023-01-05T08:28:31.398Z,11.50
2023-01-05T08:31:04.660Z,10.43
2023-01-05T08:33:33.508Z,11.20
2023-01-05T08:36:10.067Z,11.30
2023-01-05T08:38:39.043Z,10.63
2023-01-05T08:41:07.850Z,11.40
2023-01-05T08:43:36.809Z,10.20
2023-01-05T08:46:05.532Z,11.07
2023-01-05T08:48:34.157Z,11.13
2023-01-05T08:51:07.928Z,10.63
2023-01-05T08:53:36.732Z,11.33
2023-01-05T08:56:06.039Z,12.03
2023-01-05T08:58:36.445Z,10.17
2023-01-05T09:01:08.251Z,11.53
2023-01-05T09:03:38.162Z,11.37
2023-01-05T09:06:12.438Z,12.70
2023-01-05T09:08:43.044Z,10.83
2023-01-05T09:11:13.436Z,9.90
2023-01-05T09:13:46.633Z,10.27
2023-01-05T09:16:28.970Z,10.97
2023-01-05T09:19:07.076Z,10.67
2023-01-05T09:21:39.668Z,10.77
2023-01-05T09:24:12.187Z,9.97
2023-01-05T09:26:42.153Z,10.70
2023-01-05T09:29:13.230Z,10.90
2023-01-05T09:31:42.726Z,9.90
2023-01-05T09:34:11.925Z,10.10
2023-01-05T09:36:42.149Z,10.50
2023-01-05T09:39:11.883Z,10.63
2023-01-05T09:41:45.321Z,9.20
2023-01-05T09:44:21.527Z,9.40
2023-01-05T09:46:52.623Z,9.97
2023-01-05T09:49:24.942Z,9.43
2023-01-05T09:52:00.851Z,8.97
2023-01-05T09:54:37.060Z,8.93
2023-01-05T09:57:09.883Z,8.53
2023-01-05T09:59:42.332Z,8.40
2023-01-05T10:02:19.726Z,8.13
2023-01-05T10:04:52.844Z,8.40
2023-01-05T10:07:33.721Z,8.07
2023-01-05T10:10:07.780Z,8.50
2023-01-05T10:13:03.703Z,7.70
2023-01-05T10:15:40.999Z,7.90
2023-01-05T10:18:15.423Z,8.63
2023-01-05T10:21:08.229Z,7.43
2023-01-05T10:24:03.442Z,8.27
2023-01-05T10:27:22.595Z,7.30
2023-01-05T10:29:46.289Z,7.73
2023-01-05T10:32:49.804Z,7.80
2023-01-05T10:38:52.905Z,7.43
2023-01-05T10:41:34.128Z,7.40
2023-01-05T10:44:26.723Z,6.80
2023-01-05T10:46:55.865Z,6.40
2023-01-05T10:49:27.928Z,6.47
2023-01-05T10:52:03.895Z,7.07
2023-01-05T10:54:40.428Z,7.13
2023-01-05T10:57:44.178Z,7.63
2023-01-05T11:00:18.098Z,6.67
2023-01-05T11:02:52.341Z,6.73
2023-01-05T11:05:32.591Z,7.87
2023-01-05T11:08:04.716Z,7.67
2023-01-05T11:10:53.258Z,7.47
2023-01-05T11:13:34.355Z,7.30
2023-01-05T11:16:14.261Z,6.37
2023-01-05T11:18:57.600Z,7.93
2023-01-05T11:21:31.673Z,7.90
2023-01-05T11:24:04.429Z,7.17
2023-01-05T11:26:40.644Z,6.60
2023-01-05T11:29:26.127Z,6.27
2023-01-05T11:32:05.101Z,7.43
2023-01-05T11:34:46.026Z,6.93
2023-01-05T11:37:27.793Z,7.07
2023-01-05T11:40:06.632Z,6.70
2023-01-05T11:42:43.000Z,6.43
2023-01-05T11:45:30.398Z,6.23
2023-01-05T11:48:04.580Z,5.97
2023-01-05T11:50:45.790Z,6.17
2023-01-05T11:53:37.405Z,6.20
2023-01-05T11:56:23.120Z,6.33
2023-01-05T11:58:54.792Z,5.93
2023-01-05T12:01:51.279Z,5.90
2023-01-05T12:04:56.852Z,6.67
2023-01-05T12:07:35.322Z,6.70
2023-01-05T12:10:25.045Z,7.13
2023-01-05T12:13:09.337Z,6.93
2023-01-05T12:16:10.175Z,7.53
2023-01-05T12:19:17.253Z,6.57
2023-01-05T12:22:02.363Z,6.00
2023-01-05T12:24:58.784Z,6.83
2023-01-05T12:27:46.255Z,6.27
2023-01-05T12:37:15.967Z,6.27
2023-01-05T12:40:19.837Z,5.57
2023-01-05T12:43:01.933Z,6.00
2023-01-05T12:46:01.564Z,7.03
2023-01-05T12:48:38.479Z,5.97
2023-01-05T12:51:14.259Z,7.30
2023-01-05T12:53:53.583Z,6.00
2023-01-05T12:56:29.201Z,6.33
2023-01-05T12:59:13.650Z,6.20
2023-01-05T13:01:51.050Z,6.33
2023-01-05T13:04:44.612Z,7.07
2023-01-05T13:07:23.817Z,6.10
2023-01-05T13:10:03.064Z,6.17
2023-01-05T13:12:35.273Z,6.97
2023-01-05T13:15:16.967Z,11.17
2023-01-05T13:17:53.327Z,5.90
2023-01-05T13:20:46.740Z,7.17
2023-01-05T13:23:21.902Z,6.20
2023-01-05T13:25:58.576Z,7.23
2023-01-05T13:28:33.543Z,6.73
2023-01-05T13:31:24.499Z,6.20
2023-01-05T13:34:19.748Z,6.97
2023-01-05T13:37:25.177Z,6.53
2023-01-05T13:40:29.172Z,6.90
2023-01-05T13:43:14.219Z,7.07
2023-01-05T13:46:23.402Z,6.60
2023-01-05T13:49:22.042Z,5.53
2023-01-05T13:51:58.938Z,5.93
2023-01-05T13:54:49.451Z,6.37
2023-01-05T13:57:42.907Z,5.67
2023-01-05T14:00:28.681Z,6.20
2023-01-05T14:03:08.305Z,5.87
2023-01-05T14:05:50.387Z,5.70
2023-01-05T14:08:27.686Z,5.30
2023-01-05T14:11:16.704Z,5.47
2023-01-05T14:14:01.773Z,5.93
2023-01-05T14:17:02.133Z,5.47
2023-01-05T14:20:07.663Z,5.73
2023-01-05T14:22:43.555Z,5.50
2023-01-05T14:25:49.773Z,4.90
2023-01-05T14:29:07.227Z,6.53
2023-01-05T14:31:56.287Z,6.00
2023-01-05T14:34:31.873Z,5.43
2023-01-05T14:37:25.040Z,6.27
2023-01-05T14:40:08.671Z,5.07
2023-01-05T14:42:53.320Z,5.60
2023-01-05T14:45:33.178Z,5.40
2023-01-05T14:48:07.896Z,6.10
2023-01-05T14:50:49.368Z,6.43
2023-01-05T14:53:44.804Z,6.07
2023-01-05T14:56:36.095Z,5.30
2023-01-05T14:59:20.467Z,5.77
2023-01-05T15:02:09.353Z,5.47
2023-01-05T15:04:48.663Z,5.67
2023-01-05T15:07:35.416Z,6.47
2023-01-05T15:10:54.096Z,5.20
2023-01-05T15:14:19.810Z,5.97
2023-01-05T15:17:25.372Z,6.07
2023-01-05T15:24:11.956Z,8.30
2023-01-05T15:27:24.748Z,7.97
2023-01-05T15:30:13.192Z,7.13
2023-01-05T15:32:49.877Z,6.97
2023-01-05T15:35:20.661Z,7.03
2023-01-05T15:37:52.539Z,6.87
2023-01-05T15:40:37.658Z,6.27
2023-01-05T15:43:07.928Z,7.07
2023-01-05T15:45:44.251Z,7.57
2023-01-05T15:48:23.156Z,6.57
2023-01-05T15:50:56.973Z,8.13
2023-01-05T15:53:29.550Z,7.20
2023-01-05T15:56:01.099Z,7.90
2023-01-05T15:58:35.046Z,7.17
2023-01-05T16:01:18.352Z,7.07
2023-01-05T16:03:56.319Z,7.40
2023-01-05T16:06:42.680Z,8.30
2023-01-05T16:09:33.160Z,8.13
2023-01-05T16:12:30.072Z,8.07
2023-01-05T16:15:05.229Z,9.57
2023-01-05T16:17:53.101Z,9.13
2023-01-05T16:20:28.773Z,9.23
2023-01-05T16:23:08.886Z,9.53
2023-01-05T16:25:50.639Z,8.87
2023-01-05T16:28:26.517Z,9.77
2023-01-05T16:31:02.990Z,9.97
2023-01-05T16:33:49.813Z,12.27
2023-01-05T16:36:28.443Z,11.67
2023-01-05T16:39:15.074Z,10.57
2023-01-05T16:42:25.484Z,11.17
2023-01-05T16:44:57.882Z,11.83
2023-01-05T16:47:53.422Z,13.17
2023-01-05T16:51:08.518Z,12.87
2023-01-05T16:53:48.869Z,13.57
2023-01-05T16:56:26.645Z,12.73
2023-01-05T16:58:59.187Z,18.20
2023-01-05T17:01:55.363Z,19.10
2023-01-05T17:04:28.045Z,15.37
2023-01-05T17:06:59.313Z,18.30
2023-01-05T17:09:34.829Z,15.73
2023-01-05T17:12:04.349Z,13.40
2023-01-05T17:14:35.183Z,12.53
2023-01-05T17:17:09.281Z,12.73
2023-01-05T17:22:21.136Z,13.27
2023-01-05T17:24:54.074Z,11.13
2023-01-05T17:27:22.701Z,10.53
2023-01-05T17:32:38.475Z,10.00
2023-01-05T17:35:18.460Z,8.77
2023-01-05T17:38:05.367Z,9.67
2023-01-05T17:40:37.140Z,9.20
2023-01-05T17:43:07.962Z,8.47
2023-01-05T17:45:44.373Z,8.90
2023-01-05T17:48:24.094Z,9.67
2023-01-05T17:50:54.203Z,9.37
2023-01-05T17:53:23.907Z,17.80
2023-01-05T17:55:52.665Z,17.23
2023-01-05T17:58:26.509Z,16.93
2023-01-05T18:00:57.346Z,20.73
2023-01-05T18:03:29.619Z,21.13
2023-01-05T18:06:01.279Z,16.23
2023-01-05T18:08:30.612Z,15.27
2023-01-05T18:11:03.753Z,11.37
2023-01-05T18:16:17.954Z,10.53
2023-01-05T18:18:52.694Z,10.87
2023-01-05T18:21:23.856Z,10.47
2023-01-05T18:23:53.663Z,10.70
2023-01-05T18:26:29.507Z,10.30
2023-01-05T18:29:04.216Z,10.37
2023-01-05T18:31:40.152Z,12.17
2023-01-05T18:34:17.838Z,13.00
2023-01-05T18:36:55.678Z,14.13
2023-01-05T18:39:32.210Z,13.53
2023-01-05T18:42:02.493Z,13.63
2023-01-05T18:44:34.492Z,13.17
2023-01-05T18:47:04.466Z,14.10
2023-01-05T18:49:43.040Z,13.97
2023-01-05T18:52:22.412Z,14.73
2023-01-05T18:54:59.975Z,18.47
2023-01-05T18:57:38.551Z,19.43
2023-01-05T19:00:10.023Z,21.47
2023-01-05T19:02:40.020Z,18.70
2023-01-05T19:05:14.398Z,17.27
2023-01-05T19:07:50.880Z,18.00
2023-01-05T19:10:26.058Z,16.10
2023-01-05T19:12:55.288Z,16.73
2023-01-05T19:15:26.065Z,15.60
2023-01-05T19:17:59.004Z,18.70
2023-01-05T19:20:32.691Z,18.10
2023-01-05T19:23:04.773Z,17.37
2023-01-05T19:25:37.284Z,19.23
2023-01-05T19:28:06.838Z,18.63
2023-01-05T19:30:37.299Z,17.73
2023-01-05T19:33:06.304Z,17.77
2023-01-05T19:35:47.455Z,16.10
2023-01-05T19:38:16.412Z,15.13
2023-01-05T19:40:51.182Z,16.17
2023-01-05T19:43:20.597Z,16.17
2023-01-05T19:45:52.098Z,16.60
2023-01-05T19:48:34.162Z,15.63
2023-01-05T19:51:06.355Z,17.03
2023-01-05T19:53:38.975Z,17.00
2023-01-05T19:56:13.771Z,16.63
2023-01-05T19:58:43.748Z,16.03
2023-01-05T20:01:15.477Z,17.77
2023-01-05T20:03:53.019Z,16.70
2023-01-05T20:06:25.215Z,17.80
2023-01-05T20:08:59.352Z,17.27
2023-01-05T20:11:41.435Z,17.73
2023-01-05T20:14:14.164Z,19.90
2023-01-05T20:17:00.751Z,20.93
2023-01-05T20:19:34.258Z,24.43
2023-01-05T20:22:10.566Z,25.40
2023-01-05T20:24:40.268Z,25.00
2023-01-05T20:27:22.476Z,27.43
2023-01-05T20:29:51.671Z,26.40
2023-01-05T20:32:30.389Z,29.30
2023-01-05T20:35:03.710Z,27.90
2023-01-05T20:37:40.788Z,26.77
2023-01-05T20:40:20.834Z,25.00
2023-01-05T20:42:50.334Z,25.27
2023-01-05T20:45:19.678Z,25.73
2023-01-05T20:47:50.843Z,26.60
2023-01-05T20:50:22.868Z,25.67
2023-01-05T20:52:53.466Z,25.70
2023-01-05T20:55:23.049Z,25.63
2023-01-05T20:58:00.933Z,25.23
2023-01-05T21:00:32.392Z,29.63
2023-01-05T21:03:02.260Z,25.37
2023-01-05T21:05:41.251Z,25.53
2023-01-05T21:08:22.335Z,35.83
2023-01-05T21:10:57.188Z,27.63
2023-01-05T21:13:33.070Z,30.33
2023-01-05T21:16:05.572Z,26.00
2023-01-05T21:18:37.145Z,23.77
2023-01-05T21:21:07.342Z,24.83
2023-01-05T21:23:38.145Z,25.47
2023-01-05T21:26:12.906Z,27.67
2023-01-05T21:28:44.643Z,23.90
2023-01-05T21:31:16.857Z,24.23
2023-01-05T21:33:46.333Z,25.90
2023-01-05T21:36:18.852Z,28.10
2023-01-05T21:39:02.649Z,25.40
2023-01-05T21:41:54.802Z,24.43
2023-01-05T21:47:15.723Z,18.73
2023-01-05T21:49:59.692Z,19.50
2023-01-05T21:52:46.072Z,17.27
2023-01-05T21:55:33.768Z,16.43
2023-01-05T21:58:08.317Z,14.10
2023-01-05T22:00:45.309Z,14.40
2023-01-05T22:03:26.919Z,13.43
2023-01-05T22:06:01.573Z,11.43
2023-01-05T22:08:30.957Z,10.33
2023-01-05T22:11:05.597Z,10.40
2023-01-05T22:13:38.740Z,9.33
2023-01-05T22:16:11.230Z,8.47
2023-01-05T22:18:51.938Z,8.53
2023-01-05T22:21:23.144Z,7.33
2023-01-05T22:23:58.187Z,6.37
2023-01-05T22:26:30.848Z,4.87
2023-01-05T22:29:02.092Z,5.70
2023-01-05T22:31:47.426Z,5.90
2023-01-05T22:34:22.913Z,6.30
2023-01-05T22:36:58.980Z,8.33
2023-01-05T22:39:31.338Z,8.77
2023-01-05T22:42:09.264Z,9.67
2023-01-05T22:44:41.156Z,8.33
2023-01-05T22:47:10.332Z,7.80
2023-01-05T22:49:40.007Z,7.13
2023-01-05T22:52:08.980Z,7.53
2023-01-05T22:54:40.591Z,6.57
2023-01-05T22:57:15.887Z,6.83
2023-01-05T22:59:44.735Z,6.23
2023-01-05T23:02:14.358Z,5.40
2023-01-05T23:04:48.931Z,4.93
2023-01-05T23:07:21.456Z,5.37
2023-01-05T23:09:50.623Z,5.07
2023-01-05T23:12:25.415Z,4.70
2023-01-05T23:14:54.627Z,4.80
2023-01-05T23:17:23.425Z,4.47
2023-01-05T23:19:51.926Z,5.50
2023-01-05T23:22:21.242Z,5.43
2023-01-05T23:24:51.454Z,6.20
2023-01-05T23:27:20.944Z,6.07
2023-01-05T23:29:51.017Z,6.60
2023-01-05T23:32:19.839Z,5.87
2023-01-05T23:34:48.799Z,6.00
2023-01-05T23:37:18.292Z,7.80
2023-01-05T23:39:46.829Z,9.50
2023-01-05T23:42:29.902Z,17.67
2023-01-05T23:45:00.591Z,15.20
2023-01-05T23:47:29.750Z,14.43
2023-01-05T23:50:02.501Z,17.53
2023-01-05T23:52:31.602Z,16.60
2023-01-05T23:55:00.903Z,18.90
2023-01-05T23:57:31.399Z,19.30
